createdAt,value
2018-06-10T00:00:12.542Z,283.10
2018-06-10T00:02:41.031Z,303.80
2018-06-10T00:05:09.503Z,370.00
2018-06-10T00:07:38.139Z,325.33
2018-06-10T00:10:06.692Z,289.50
2018-06-10T00:12:35.151Z,308.67
2018-06-10T00:15:03.373Z,333.23
2018-06-10T00:17:31.831Z,273.90
2018-06-10T00:20:00.312Z,318.80
2018-06-10T00:22:28.791Z,359.80
2018-06-10T00:24:57.292Z,343.90
2018-06-10T00:27:25.746Z,322.00
2018-06-10T00:29:54.263Z,301.43
2018-06-10T00:32:22.721Z,269.80
2018-06-10T00:34:51.261Z,211.53
2018-06-10T00:37:19.753Z,191.80
2018-06-10T00:39:48.292Z,199.90
2018-06-10T00:42:16.808Z,270.60
2018-06-10T00:44:45.301Z,313.03
2018-06-10T00:47:13.469Z,319.57
2018-06-10T00:49:42.807Z,357.80
2018-06-10T00:52:11.279Z,405.00
2018-06-10T00:54:40.015Z,315.30
2018-06-10T00:57:08.699Z,350.60
2018-06-10T00:59:37.250Z,353.77
2018-06-10T01:02:05.756Z,393.37
2018-06-10T01:04:34.351Z,389.20
2018-06-10T01:07:02.848Z,399.20
2018-06-10T01:09:31.308Z,376.27
2018-06-10T01:11:59.892Z,338.40
2018-06-10T01:14:28.438Z,343.60
2018-06-10T01:16:57.008Z,374.10
2018-06-10T01:19:25.187Z,380.70
2018-06-10T01:21:53.682Z,390.40
2018-06-10T01:24:22.163Z,401.23
2018-06-10T01:26:51.212Z,447.17
2018-06-10T01:29:20.072Z,416.47
2018-06-10T01:31:48.614Z,399.63
2018-06-10T01:34:17.119Z,405.63
2018-06-10T01:36:45.666Z,426.60
2018-06-10T01:39:14.132Z,363.33
2018-06-10T01:41:42.808Z,353.90
2018-06-10T01:44:11.353Z,345.80
2018-06-10T01:46:39.810Z,355.67
2018-06-10T01:49:08.382Z,339.17
2018-06-10T01:51:36.851Z,318.07
2018-06-10T01:54:05.419Z,288.80
2018-06-10T01:56:33.874Z,299.63
2018-06-10T01:59:02.540Z,323.27
2018-06-10T02:01:30.987Z,307.67
2018-06-10T02:03:59.636Z,358.33
2018-06-10T02:06:28.123Z,359.23
2018-06-10T02:08:56.588Z,288.77
2018-06-10T02:11:25.162Z,347.70
2018-06-10T02:13:53.706Z,377.97
2018-06-10T02:16:22.251Z,349.73
2018-06-10T02:18:50.768Z,351.07
2018-06-10T02:21:19.522Z,318.70
2018-06-10T02:23:47.704Z,230.03
2018-06-10T02:26:16.188Z,229.60
2018-06-10T02:28:44.685Z,255.30
2018-06-10T02:31:13.377Z,220.80
2018-06-10T02:33:41.830Z,233.47
2018-06-10T02:36:10.343Z,225.37
2018-06-10T02:38:38.935Z,260.97
2018-06-10T02:41:07.467Z,207.73
2018-06-10T02:43:35.948Z,215.63
2018-06-10T02:46:04.455Z,212.00
2018-06-10T02:48:32.907Z,185.73
2018-06-10T02:51:01.396Z,209.10
2018-06-10T02:53:29.859Z,198.50
2018-06-10T02:55:58.415Z,220.07
2018-06-10T02:58:26.883Z,203.30
2018-06-10T03:00:55.471Z,219.27
2018-06-10T03:03:23.971Z,210.80
2018-06-10T03:05:52.450Z,224.33
2018-06-10T03:08:20.660Z,216.53
2018-06-10T03:10:49.173Z,241.63
2018-06-10T03:13:17.720Z,262.50
2018-06-10T03:15:46.187Z,250.70
2018-06-10T03:18:14.701Z,259.57
2018-06-10T03:20:43.162Z,264.97
2018-06-10T03:23:11.836Z,282.17
2018-06-10T03:25:40.280Z,277.37
2018-06-10T03:28:08.775Z,272.00
2018-06-10T03:30:37.227Z,289.57
2018-06-10T03:33:05.728Z,303.50
2018-06-10T03:35:34.227Z,314.47
2018-06-10T03:38:02.725Z,339.73
2018-06-10T03:40:31.327Z,327.30
2018-06-10T03:42:59.848Z,326.53
2018-06-10T03:45:28.331Z,327.33
2018-06-10T03:47:56.844Z,338.77
2018-06-10T03:50:25.054Z,340.40
2018-06-10T03:52:53.560Z,306.80
2018-06-10T03:55:22.086Z,258.97
2018-06-10T03:57:50.629Z,228.70
2018-06-10T04:00:19.207Z,224.80
2018-06-10T04:02:47.811Z,238.63
2018-06-10T04:05:16.329Z,199.83
2018-06-10T04:07:44.519Z,218.63
2018-06-10T04:10:13.035Z,241.50
2018-06-10T04:12:41.504Z,243.57
2018-06-10T04:15:10.287Z,250.93
2018-06-10T04:17:38.800Z,240.57
2018-06-10T04:20:07.293Z,253.37
2018-06-10T04:22:35.792Z,310.73
2018-06-10T04:25:04.336Z,312.33
2018-06-10T04:27:33.080Z,335.27
2018-06-10T04:30:01.584Z,327.90
2018-06-10T04:32:30.073Z,273.50
2018-06-10T04:34:58.555Z,270.20
2018-06-10T04:37:27.095Z,217.90
2018-06-10T04:39:55.538Z,205.40
2018-06-10T04:42:24.205Z,232.10
2018-06-10T04:44:52.701Z,223.37
2018-06-10T04:47:21.256Z,226.47
2018-06-10T04:49:49.765Z,255.80
2018-06-10T04:52:18.235Z,290.40
2018-06-10T04:54:46.703Z,329.70
2018-06-10T04:57:15.433Z,369.20
2018-06-10T04:59:43.991Z,420.83
2018-06-10T05:02:12.503Z,408.33
2018-06-10T05:04:40.952Z,433.10
2018-06-10T05:07:09.488Z,418.63
2018-06-10T05:09:38.230Z,414.80
2018-06-10T05:12:06.892Z,431.80
2018-06-10T05:14:35.479Z,399.20
2018-06-10T05:17:04.352Z,412.50
2018-06-10T05:19:32.982Z,401.47
2018-06-10T05:22:01.493Z,440.23
2018-06-10T05:24:29.960Z,388.67
2018-06-10T05:26:58.472Z,430.23
2018-06-10T05:29:27.415Z,397.80
2018-06-10T05:31:55.915Z,364.73
2018-06-10T05:34:24.378Z,333.67
2018-06-10T05:36:52.876Z,319.50
2018-06-10T05:39:21.343Z,331.03
2018-06-10T05:41:49.867Z,346.23
2018-06-10T05:44:18.334Z,331.30
2018-06-10T05:46:46.886Z,341.53
2018-06-10T05:49:15.343Z,375.83
2018-06-10T05:51:43.543Z,393.57
2018-06-10T05:54:12.046Z,405.80
2018-06-10T05:56:40.555Z,411.47
2018-06-10T05:59:09.038Z,367.30
2018-06-10T06:01:37.537Z,443.83
2018-06-10T06:04:05.772Z,443.67
2018-06-10T06:06:34.271Z,438.67
2018-06-10T06:09:02.772Z,412.57
2018-06-10T06:11:31.325Z,436.60
2018-06-10T06:13:59.855Z,400.17
2018-06-10T06:16:28.356Z,378.97
2018-06-10T06:18:56.879Z,385.00
2018-06-10T06:21:25.381Z,171.00
2018-06-10T06:23:53.925Z,219.10
2018-06-10T06:26:22.424Z,205.27
2018-06-10T06:28:50.892Z,191.07
2018-06-10T06:31:19.415Z,175.63
2018-06-10T06:33:47.902Z,175.47
2018-06-10T06:36:16.416Z,214.27
2018-06-10T06:38:44.882Z,234.37
2018-06-10T06:41:13.544Z,240.63
2018-06-10T06:43:42.021Z,199.63
2018-06-10T06:46:10.539Z,212.00
2018-06-10T06:48:39.057Z,211.03
2018-06-10T06:51:07.540Z,233.63
2018-06-10T06:53:36.073Z,230.23
2018-06-10T06:56:04.576Z,223.43
2018-06-10T06:58:33.062Z,235.70
2018-06-10T07:01:01.553Z,277.73
2018-06-10T07:03:30.156Z,256.13
2018-06-10T07:05:58.791Z,246.20
2018-06-10T07:08:26.983Z,237.23
2018-06-10T07:10:55.497Z,239.90
2018-06-10T07:13:24.010Z,167.63
2018-06-10T07:15:52.521Z,174.27
2018-06-10T07:18:21.072Z,155.47
2018-06-10T07:20:49.526Z,167.63
2018-06-10T07:23:18.043Z,152.93
2018-06-10T07:25:46.548Z,160.83
2018-06-10T07:28:15.077Z,117.70
2018-06-10T07:30:43.540Z,91.43
2018-06-10T07:33:12.095Z,72.10
2018-06-10T07:35:40.597Z,75.97
2018-06-10T07:38:09.086Z,54.27
2018-06-10T07:40:37.614Z,50.63
2018-06-10T07:43:06.141Z,49.60
2018-06-10T07:45:34.642Z,52.37
2018-06-10T07:48:03.164Z,35.07
2018-06-10T07:50:31.662Z,45.27
2018-06-10T07:53:00.175Z,56.47
2018-06-10T07:55:28.792Z,60.73
2018-06-10T07:57:57.324Z,58.67
2018-06-10T08:00:26.225Z,100.00
2018-06-10T08:02:54.711Z,77.30
2018-06-10T08:05:23.272Z,78.63
2018-06-10T08:07:51.708Z,71.40
2018-06-10T08:10:20.280Z,79.33
2018-06-10T08:12:49.029Z,104.30
2018-06-10T08:15:17.282Z,131.73
2018-06-10T08:17:45.830Z,100.87
2018-06-10T08:20:14.360Z,115.93
2018-06-10T08:22:42.908Z,100.23
2018-06-10T08:25:11.473Z,106.00
2018-06-10T08:27:39.954Z,136.13
2018-06-10T08:30:08.505Z,125.13
2018-06-10T08:32:36.977Z,159.60
2018-06-10T08:35:05.540Z,153.43
2018-06-10T08:37:34.032Z,181.43
2018-06-10T08:40:02.591Z,161.70
2018-06-10T08:42:31.103Z,173.93
2018-06-10T08:44:59.674Z,179.37
2018-06-10T08:47:28.229Z,173.53
2018-06-10T08:49:56.730Z,174.93
2018-06-10T08:52:25.255Z,175.53
2018-06-10T08:54:53.410Z,171.87
2018-06-10T08:57:21.915Z,195.70
2018-06-10T08:59:50.362Z,220.57
2018-06-10T09:02:18.909Z,206.03
2018-06-10T09:04:47.407Z,161.57
2018-06-10T09:07:16.066Z,179.07
2018-06-10T09:09:44.552Z,141.13
2018-06-10T09:12:13.023Z,99.40
2018-06-10T09:14:41.718Z,83.20
2018-06-10T09:17:09.829Z,78.30
2018-06-10T09:19:38.316Z,81.03
2018-06-10T09:22:06.829Z,85.47
2018-06-10T09:24:35.316Z,64.87
2018-06-10T09:27:03.929Z,61.27
2018-06-10T09:29:32.420Z,72.93
2018-06-10T09:32:02.693Z,68.53
2018-06-10T09:34:31.261Z,84.23
2018-06-10T09:36:59.758Z,70.17
2018-06-10T09:39:28.409Z,85.73
2018-06-10T09:41:57.057Z,62.00
2018-06-10T09:44:25.531Z,72.13
2018-06-10T09:46:53.718Z,55.77
2018-06-10T09:49:22.199Z,69.43
2018-06-10T09:51:50.728Z,60.90
2018-06-10T09:54:19.164Z,78.60
2018-06-10T09:56:47.746Z,70.07
2018-06-10T09:59:16.252Z,70.27
2018-06-10T10:01:44.839Z,53.73
2018-06-10T10:04:13.335Z,71.87
2018-06-10T10:06:41.812Z,67.60
2018-06-10T10:09:10.328Z,62.17
2018-06-10T10:11:38.845Z,60.57
2018-06-10T10:14:07.473Z,67.73
2018-06-10T10:16:36.038Z,71.70
2018-06-10T10:19:04.526Z,68.50
2018-06-10T10:21:33.018Z,70.40
2018-06-10T10:24:01.546Z,74.73
2018-06-10T10:26:30.052Z,71.97
2018-06-10T10:28:58.519Z,65.40
2018-06-10T10:31:26.740Z,67.23
2018-06-10T10:33:55.212Z,80.87
2018-06-10T10:36:23.692Z,68.37
2018-06-10T10:38:52.375Z,71.93
2018-06-10T10:41:20.886Z,66.07
2018-06-10T10:43:49.090Z,76.73
2018-06-10T10:46:17.274Z,58.50
2018-06-10T10:48:45.828Z,59.03
2018-06-10T10:51:14.381Z,44.23
2018-06-10T10:53:42.887Z,73.23
2018-06-10T10:56:11.563Z,52.73
2018-06-10T10:58:40.066Z,49.77
2018-06-10T11:01:08.548Z,50.50
2018-06-10T11:03:37.032Z,61.93
2018-06-10T11:06:05.643Z,54.43
2018-06-10T11:08:34.115Z,60.17
2018-06-10T11:11:02.410Z,50.83
2018-06-10T11:13:30.960Z,54.83
2018-06-10T11:15:59.508Z,50.77
2018-06-10T11:18:28.259Z,53.30
2018-06-10T11:20:56.722Z,55.23
2018-06-10T11:23:25.293Z,32.43
2018-06-10T11:25:53.904Z,46.17
2018-06-10T11:28:22.403Z,36.23
2018-06-10T11:30:51.030Z,49.73
2018-06-10T11:33:19.604Z,55.90
2018-06-10T11:35:48.101Z,54.70
2018-06-10T11:38:16.645Z,58.80
2018-06-10T11:40:45.128Z,46.90
2018-06-10T11:43:18.360Z,29.17
2018-06-10T11:45:51.670Z,39.63
2018-06-10T11:48:26.981Z,32.00
2018-06-10T11:51:01.531Z,40.60
2018-06-10T11:53:30.079Z,36.97
2018-06-10T11:55:58.698Z,34.17
2018-06-10T11:58:32.637Z,71.57
2018-06-10T12:01:06.457Z,35.07
2018-06-10T12:03:39.514Z,51.53
2018-06-10T12:06:12.339Z,61.70
2018-06-10T12:08:40.963Z,63.80
2018-06-10T12:11:14.224Z,68.80
2018-06-10T12:13:49.510Z,58.23
2018-06-10T12:16:21.871Z,65.67
2018-06-10T12:18:55.959Z,84.80
2018-06-10T12:21:28.814Z,75.33
2018-06-10T12:23:57.329Z,90.50
2018-06-10T12:26:25.888Z,81.03
2018-06-10T12:28:57.269Z,77.77
2018-06-10T12:31:25.881Z,80.17
2018-06-10T12:33:54.385Z,73.60
2018-06-10T12:36:22.900Z,79.30
2018-06-10T12:38:51.407Z,72.13
2018-06-10T12:41:19.942Z,69.47
2018-06-10T12:43:48.448Z,70.43
2018-06-10T12:46:16.911Z,75.63
2018-06-10T12:48:45.442Z,63.20
2018-06-10T12:51:18.330Z,79.90
2018-06-10T12:53:46.892Z,76.13
2018-06-10T12:56:20.419Z,68.73
2018-06-10T12:58:53.702Z,73.13
2018-06-10T13:01:26.206Z,68.70
2018-06-10T13:03:59.859Z,80.27
2018-06-10T13:06:28.427Z,85.30
2018-06-10T13:08:57.097Z,68.00
2018-06-10T13:11:25.327Z,72.70
2018-06-10T13:13:53.819Z,74.33
2018-06-10T13:16:22.422Z,71.53
2018-06-10T13:18:50.916Z,73.60
2018-06-10T13:21:19.086Z,71.30
2018-06-10T13:23:47.630Z,77.93
2018-06-10T13:26:16.151Z,65.00
2018-06-10T13:28:48.839Z,66.17
2018-06-10T13:31:18.272Z,69.67
2018-06-10T13:33:46.823Z,70.93
2018-06-10T13:36:16.595Z,73.73
2018-06-10T13:38:45.863Z,70.73
2018-06-10T13:41:14.416Z,59.17
2018-06-10T13:43:42.890Z,64.33
2018-06-10T13:46:11.379Z,69.93
2018-06-10T13:48:39.580Z,68.40
2018-06-10T13:51:12.782Z,59.00
2018-06-10T13:53:41.321Z,74.80
2018-06-10T13:56:14.434Z,59.43
2018-06-10T13:58:42.630Z,60.80
2018-06-10T14:01:13.975Z,63.50
2018-06-10T14:03:47.173Z,62.33
2018-06-10T14:06:21.124Z,61.07
2018-06-10T14:08:55.712Z,68.63
2018-06-10T14:11:26.983Z,70.53
2018-06-10T14:13:55.498Z,84.97
2018-06-10T14:16:28.378Z,59.83
2018-06-10T14:18:56.706Z,63.40
2018-06-10T14:21:25.176Z,67.90
2018-06-10T14:23:53.667Z,51.07
2018-06-10T14:26:22.144Z,46.63
2018-06-10T14:28:50.657Z,42.23
2018-06-10T14:31:19.174Z,47.50
2018-06-10T14:33:47.654Z,47.83
2018-06-10T14:36:16.147Z,44.03
2018-06-10T14:38:44.437Z,51.00
2018-06-10T14:41:12.953Z,61.90
2018-06-10T14:43:41.525Z,56.60
2018-06-10T14:46:10.036Z,56.27
2018-06-10T14:48:38.539Z,47.43
2018-06-10T14:51:07.010Z,46.47
2018-06-10T14:53:35.525Z,39.57
2018-06-10T14:56:04.011Z,52.80
2018-06-10T14:58:32.490Z,58.17
2018-06-10T15:01:00.742Z,71.53
2018-06-10T15:03:29.274Z,79.07
2018-06-10T15:05:57.821Z,74.67
2018-06-10T15:08:26.361Z,73.43
2018-06-10T15:10:54.885Z,73.23
2018-06-10T15:13:23.933Z,71.20
2018-06-10T15:15:52.492Z,63.63
2018-06-10T15:18:20.982Z,59.47
2018-06-10T15:20:49.507Z,62.00
2018-06-10T15:23:18.141Z,62.80
2018-06-10T15:25:46.659Z,63.97
2018-06-10T15:28:15.103Z,69.17
2018-06-10T15:30:43.630Z,50.97
2018-06-10T15:33:12.131Z,66.30
2018-06-10T15:35:40.690Z,47.37
2018-06-10T15:38:09.363Z,50.30
2018-06-10T15:40:38.031Z,57.90
2018-06-10T15:43:06.869Z,59.80
2018-06-10T15:45:35.410Z,55.13
2018-06-10T15:48:03.957Z,42.63
2018-06-10T15:50:32.473Z,47.03
2018-06-10T15:53:01.021Z,56.60
2018-06-10T15:55:29.580Z,60.97
2018-06-10T15:57:58.084Z,70.97
2018-06-10T16:00:26.657Z,66.13
2018-06-10T16:02:55.152Z,61.87
2018-06-10T16:05:23.831Z,124.57
2018-06-10T16:07:52.297Z,110.83
2018-06-10T16:10:20.849Z,125.47
2018-06-10T16:12:49.330Z,133.53
2018-06-10T16:15:17.905Z,145.03
2018-06-10T16:17:46.467Z,128.70
2018-06-10T16:20:14.689Z,128.43
2018-06-10T16:22:43.301Z,124.43
2018-06-10T16:25:11.949Z,116.63
2018-06-10T16:27:40.442Z,118.27
2018-06-10T16:30:09.007Z,130.80
2018-06-10T16:32:37.577Z,125.40
2018-06-10T16:35:06.117Z,116.13
2018-06-10T16:37:34.698Z,105.13
2018-06-10T16:40:03.269Z,97.43
2018-06-10T16:42:35.217Z,84.80
2018-06-10T16:45:05.174Z,83.87
2018-06-10T16:47:35.280Z,74.57
2018-06-10T16:50:03.897Z,82.13
2018-06-10T16:52:32.511Z,91.00
2018-06-10T16:55:01.044Z,83.37
2018-06-10T16:57:29.591Z,81.60
2018-06-10T16:59:58.082Z,75.37
2018-06-10T17:02:26.657Z,77.27
2018-06-10T17:04:55.196Z,73.17
2018-06-10T17:07:23.380Z,64.93
2018-06-10T17:09:51.949Z,62.17
2018-06-10T17:12:20.485Z,67.80
2018-06-10T17:14:49.045Z,71.47
2018-06-10T17:17:17.219Z,71.63
2018-06-10T17:19:45.888Z,82.73
2018-06-10T17:22:14.383Z,87.53
2018-06-10T17:24:44.107Z,90.13
2018-06-10T17:27:12.649Z,83.60
2018-06-10T17:29:41.133Z,85.47
2018-06-10T17:32:09.692Z,80.07
2018-06-10T17:34:38.235Z,84.27
2018-06-10T17:37:06.761Z,78.60
2018-06-10T17:39:35.286Z,85.63
2018-06-10T17:42:03.506Z,74.40
2018-06-10T17:44:32.342Z,82.77
2018-06-10T17:47:00.567Z,80.30
2018-06-10T17:49:29.123Z,72.30
2018-06-10T17:51:57.627Z,72.53
2018-06-10T17:54:26.155Z,80.83
2018-06-10T17:56:54.714Z,91.37
2018-06-10T17:59:23.284Z,86.83
2018-06-10T18:01:51.971Z,88.67
2018-06-10T18:04:20.515Z,83.37
2018-06-10T18:06:49.103Z,85.23
2018-06-10T18:09:17.695Z,85.83
2018-06-10T18:11:46.180Z,88.93
2018-06-10T18:14:14.747Z,83.60
2018-06-10T18:16:42.933Z,84.97
2018-06-10T18:19:11.425Z,80.03
2018-06-10T18:21:39.948Z,83.40
2018-06-10T18:24:08.608Z,87.67
2018-06-10T18:26:37.631Z,80.73
2018-06-10T18:29:06.108Z,83.50
2018-06-10T18:31:34.635Z,81.80
2018-06-10T18:34:02.856Z,80.43
2018-06-10T18:36:31.407Z,80.97
2018-06-10T18:39:00.123Z,79.77
2018-06-10T18:41:28.556Z,75.67
2018-06-10T18:43:57.082Z,68.70
2018-06-10T18:46:25.653Z,58.73
2018-06-10T18:48:54.175Z,57.47
2018-06-10T18:51:22.742Z,59.73
2018-06-10T18:53:51.266Z,73.83
2018-06-10T18:56:19.461Z,60.57
2018-06-10T18:58:48.096Z,58.87
2018-06-10T19:01:16.581Z,58.13
2018-06-10T19:03:45.198Z,60.17
2018-06-10T19:06:13.731Z,59.50
2018-06-10T19:08:42.270Z,60.97
2018-06-10T19:11:11.113Z,65.23
2018-06-10T19:13:39.626Z,64.13
2018-06-10T19:16:08.165Z,62.80
2018-06-10T19:18:36.692Z,69.10
2018-06-10T19:21:05.521Z,62.43
2018-06-10T19:23:34.059Z,59.40
2018-06-10T19:26:02.539Z,57.77
2018-06-10T19:28:31.115Z,56.07
2018-06-10T19:30:59.634Z,53.37
2018-06-10T19:33:28.178Z,50.50
2018-06-10T19:35:56.748Z,56.30
2018-06-10T19:38:25.237Z,50.37
2018-06-10T19:40:53.770Z,53.00
2018-06-10T19:43:22.275Z,50.43
2018-06-10T19:45:50.801Z,56.97
2018-06-10T19:48:19.310Z,56.57
2018-06-10T19:50:47.485Z,55.67
2018-06-10T19:53:16.037Z,61.10
2018-06-10T19:55:44.579Z,61.73
2018-06-10T19:58:13.092Z,64.97
2018-06-10T20:00:41.639Z,68.40
2018-06-10T20:03:10.177Z,72.13
2018-06-10T20:05:38.693Z,66.73
2018-06-10T20:08:07.262Z,60.70
2018-06-10T20:10:35.532Z,67.47
2018-06-10T20:13:04.088Z,66.73
2018-06-10T20:15:32.763Z,72.47
2018-06-10T20:18:01.285Z,71.90
2018-06-10T20:20:29.799Z,43.37
2018-06-10T20:22:58.551Z,33.00
2018-06-10T20:25:27.073Z,30.73
2018-06-10T20:27:55.565Z,30.10
2018-06-10T20:30:24.802Z,26.37
2018-06-10T20:32:53.064Z,30.20
2018-06-10T20:35:21.805Z,31.97
2018-06-10T20:37:50.348Z,31.40
2018-06-10T20:40:18.879Z,33.73
2018-06-10T20:42:47.399Z,36.57
2018-06-10T20:45:15.896Z,37.73
2018-06-10T20:47:44.388Z,37.80
2018-06-10T20:50:13.420Z,40.10
2018-06-10T20:52:41.907Z,41.27
2018-06-10T20:55:10.453Z,45.97
2018-06-10T20:57:41.324Z,43.03
2018-06-10T21:00:09.864Z,50.83
2018-06-10T21:02:38.393Z,61.17
2018-06-10T21:05:07.838Z,70.07
2018-06-10T21:07:36.379Z,68.23
2018-06-10T21:10:04.958Z,66.00
2018-06-10T21:12:33.485Z,105.00
2018-06-10T21:15:02.021Z,116.57
2018-06-10T21:17:31.977Z,119.40
2018-06-10T21:20:02.538Z,111.57
2018-06-10T21:22:31.298Z,110.30
2018-06-10T21:24:59.906Z,110.57
2018-06-10T21:27:28.408Z,98.93
2018-06-10T21:29:56.925Z,102.47
2018-06-10T21:32:25.429Z,98.07
2018-06-10T21:34:54.163Z,98.83
2018-06-10T21:37:22.666Z,98.37
2018-06-10T21:39:51.499Z,105.27
2018-06-10T21:42:19.989Z,191.03
2018-06-10T21:44:48.555Z,181.97
2018-06-10T21:47:17.045Z,187.30
2018-06-10T21:49:45.363Z,184.13
2018-06-10T21:52:13.951Z,176.53
2018-06-10T21:54:42.191Z,163.33
2018-06-10T21:57:10.744Z,154.50
2018-06-10T21:59:39.316Z,146.37
2018-06-10T22:02:09.825Z,160.47
2018-06-10T22:04:38.413Z,154.27
2018-06-10T22:07:07.030Z,156.20
2018-06-10T22:09:35.608Z,150.00
2018-06-10T22:12:04.228Z,142.97
2018-06-10T22:14:33.014Z,133.60
2018-06-10T22:17:01.566Z,141.13
2018-06-10T22:19:30.095Z,131.07
2018-06-10T22:21:58.627Z,140.23
2018-06-10T22:24:27.143Z,130.47
2018-06-10T22:26:55.980Z,146.60
2018-06-10T22:29:24.703Z,149.37
2018-06-10T22:31:53.322Z,147.90
2018-06-10T22:34:21.959Z,160.67
2018-06-10T22:36:50.755Z,140.40
2018-06-10T22:39:19.548Z,144.37
2018-06-10T22:41:48.724Z,143.80
2018-06-10T22:44:17.276Z,142.63
2018-06-10T22:46:45.849Z,142.80
2018-06-10T22:49:14.386Z,155.00
2018-06-10T22:51:42.926Z,146.97
2018-06-10T22:54:43.275Z,132.27
2018-06-10T22:57:11.838Z,134.77
2018-06-10T22:59:40.489Z,148.70
2018-06-10T23:02:09.834Z,136.17
2018-06-10T23:04:38.370Z,131.73
2018-06-10T23:07:06.873Z,137.23
2018-06-10T23:09:35.455Z,145.87
2018-06-10T23:12:04.029Z,107.30
2018-06-10T23:14:32.646Z,76.27
2018-06-10T23:17:01.595Z,70.70
2018-06-10T23:19:30.120Z,76.20
2018-06-10T23:21:58.599Z,55.17
2018-06-10T23:24:27.165Z,59.20
2018-06-10T23:26:55.645Z,71.10
2018-06-10T23:29:24.155Z,73.20
2018-06-10T23:31:52.728Z,69.80
2018-06-10T23:34:21.249Z,69.53
2018-06-10T23:36:50.807Z,82.93
2018-06-10T23:39:19.366Z,89.90
2018-06-10T23:41:47.862Z,97.73
2018-06-10T23:44:16.402Z,103.80
2018-06-10T23:46:44.888Z,108.47
2018-06-10T23:49:15.761Z,96.80
2018-06-10T23:51:45.299Z,97.13
2018-06-10T23:54:14.016Z,99.67
2018-06-10T23:56:42.208Z,124.63
2018-06-10T23:59:10.733Z,96.47
